Time;durP1;ratioP1;P1;durP2;ratioP2;P2;SDS_P1;SDS_P2;PMS_P1;PMS_P2;Temp;Humidity;BMP_temperature;BMP_pressure;BME280_temperature;BME280_humidity;BME280_pressure;Samples;Min_cycle;Max_cycle;Signal;HPM_P1;HPM_P2
2024/01/23 00:02:00;;;;;;;11.00;2.80;;;7.30;99.90;;;;;;5049114;28;20947;-69
2024/01/23 00:04:47;;;;;;;19.97;3.60;;;7.40;99.90;;;;;;5052926;28;20975;-70
2024/01/23 00:07:32;;;;;;;12.40;3.38;;;7.40;99.90;;;;;;5063848;28;20456;-69
2024/01/23 00:10:19;;;;;;;18.57;4.50;;;7.50;99.90;;;;;;5060915;28;20212;-70
2024/01/23 00:13:06;;;;;;;13.53;3.00;;;7.50;99.90;;;;;;5062551;28;20434;-69
2024/01/23 00:15:51;;;;;;;6.00;2.13;;;7.50;99.90;;;;;;5053864;28;20455;-69
2024/01/23 00:18:37;;;;;;;8.97;2.90;;;7.60;99.90;;;;;;5053574;28;20502;-69
2024/01/23 00:21:24;;;;;;;8.90;2.53;;;7.60;99.90;;;;;;5061303;28;20450;-70
2024/01/23 00:24:10;;;;;;;8.47;2.53;;;7.60;99.90;;;;;;5052123;28;20418;-70
2024/01/23 00:26:56;;;;;;;13.50;2.63;;;7.60;99.90;;;;;;5054114;28;20459;-69
2024/01/23 00:29:41;;;;;;;7.13;2.00;;;7.70;99.90;;;;;;5058922;28;20444;-69
2024/01/23 00:32:30;;;;;;;15.13;2.90;;;7.80;99.90;;;;;;5066622;28;20441;-70
2024/01/23 00:35:16;;;;;;;9.43;2.50;;;7.80;99.90;;;;;;5052593;28;20709;-70
2024/01/23 00:38:03;;;;;;;8.23;2.40;;;7.80;99.90;;;;;;5049588;28;20499;-69
2024/01/23 00:40:50;;;;;;;8.20;2.70;;;7.80;99.90;;;;;;5056918;28;20450;-69
2024/01/23 00:43:35;;;;;;;16.83;3.03;;;7.80;99.90;;;;;;5044909;28;20836;-69
2024/01/23 00:46:21;;;;;;;5.60;2.63;;;7.80;99.90;;;;;;5065964;28;20865;-70
2024/01/23 00:49:07;;;;;;;12.23;2.63;;;7.90;99.90;;;;;;5060865;28;20428;-69
2024/01/23 00:51:52;;;;;;;10.50;2.33;;;7.90;99.90;;;;;;5061109;28;20776;-69
2024/01/23 00:54:40;;;;;;;18.03;2.17;;;7.90;99.90;;;;;;5051603;28;20589;-69
2024/01/23 00:57:25;;;;;;;15.53;1.97;;;8.00;99.90;;;;;;5042712;28;20450;-70
2024/01/23 01:00:12;;;;;;;9.60;2.30;;;8.00;99.90;;;;;;5056700;28;20527;-69
2024/01/23 01:02:58;;;;;;;8.30;2.80;;;8.00;99.90;;;;;;5054291;28;20480;-70
2024/01/23 01:05:45;;;;;;;14.33;2.50;;;8.00;99.90;;;;;;5062587;28;20519;-70
2024/01/23 01:08:31;;;;;;;10.60;2.60;;;8.00;99.90;;;;;;5056997;28;20437;-70
2024/01/23 01:11:18;;;;;;;12.43;3.40;;;8.00;99.90;;;;;;5062329;28;20458;-70
2024/01/23 01:14:03;;;;;;;18.50;2.40;;;8.00;99.90;;;;;;5052340;28;20474;-70
2024/01/23 01:16:49;;;;;;;13.47;2.57;;;8.10;99.90;;;;;;5050390;28;20575;-70
2024/01/23 01:19:35;;;;;;;6.97;1.90;;;8.10;99.90;;;;;;5055503;28;20959;-71
2024/01/23 01:22:21;;;;;;;14.00;3.80;;;8.10;99.90;;;;;;5055186;28;20795;-70
2024/01/23 01:25:07;;;;;;;9.13;2.97;;;8.10;99.90;;;;;;5050965;28;20426;-70
2024/01/23 01:27:54;;;;;;;13.73;2.23;;;8.00;99.90;;;;;;5063271;28;20825;-70
2024/01/23 01:30:40;;;;;;;8.20;2.23;;;8.00;99.90;;;;;;5041964;28;20425;-70
2024/01/23 01:33:26;;;;;;;13.80;3.10;;;8.00;99.90;;;;;;5065677;28;20513;-70
2024/01/23 01:36:11;;;;;;;8.87;2.10;;;8.00;99.90;;;;;;5061163;28;20472;-70
2024/01/23 01:39:00;;;;;;;9.00;2.03;;;8.00;99.90;;;;;;5058769;28;20565;-71
2024/01/23 01:41:52;;;;;;;11.23;2.27;;;8.00;99.90;;;;;;5050090;28;20426;-71
2024/01/23 01:44:39;;;;;;;10.10;3.20;;;8.00;99.90;;;;;;5058876;28;20432;-70
2024/01/23 01:47:25;;;;;;;7.83;2.20;;;8.10;99.90;;;;;;5051477;28;20536;-70
2024/01/23 01:50:11;;;;;;;8.93;2.37;;;8.10;99.90;;;;;;5047544;28;20502;-70
2024/01/23 01:52:57;;;;;;;12.10;2.80;;;8.10;99.90;;;;;;5061741;28;20429;-70
2024/01/23 01:55:43;;;;;;;15.50;2.63;;;8.10;99.90;;;;;;5071591;28;20476;-71
2024/01/23 01:58:31;;;;;;;11.87;3.10;;;8.10;99.90;;;;;;5066890;28;20429;-70
2024/01/23 02:01:18;;;;;;;11.07;2.20;;;8.10;99.90;;;;;;5053343;28;20507;-71
2024/01/23 02:04:04;;;;;;;12.93;2.47;;;8.10;99.90;;;;;;5050927;28;20429;-70
2024/01/23 02:06:50;;;;;;;7.03;2.50;;;8.10;99.90;;;;;;5055296;28;20572;-70
2024/01/23 02:09:35;;;;;;;14.70;2.10;;;8.10;99.90;;;;;;5050931;28;20951;-70
2024/01/23 02:12:21;;;;;;;12.23;2.70;;;8.10;99.90;;;;;;5052483;28;21282;-70
2024/01/23 02:15:08;;;;;;;12.60;2.70;;;8.10;99.90;;;;;;5055889;28;21151;-70
2024/01/23 02:17:55;;;;;;;6.90;2.00;;;8.10;99.90;;;;;;5054258;28;20465;-71
2024/01/23 02:20:41;;;;;;;9.00;2.67;;;8.10;99.90;;;;;;5064170;28;20432;-71
2024/01/23 02:23:29;;;;;;;11.70;2.83;;;8.00;99.90;;;;;;5054070;28;20434;-70
2024/01/23 02:26:15;;;;;;;12.00;2.53;;;8.00;99.90;;;;;;5053419;28;20412;-70
2024/01/23 02:29:01;;;;;;;9.70;1.90;;;8.00;99.90;;;;;;5058885;28;20435;-70
2024/01/23 02:31:47;;;;;;;12.57;2.70;;;7.90;99.90;;;;;;5053402;28;21015;-70
2024/01/23 02:34:32;;;;;;;6.80;1.73;;;7.90;99.90;;;;;;5048611;28;21131;-70
2024/01/23 02:37:18;;;;;;;14.07;3.13;;;7.90;99.90;;;;;;5050318;28;20454;-70
2024/01/23 02:40:07;;;;;;;6.00;1.93;;;7.90;99.90;;;;;;5045692;28;20429;-70
2024/01/23 02:42:52;;;;;;;7.53;2.47;;;7.90;99.90;;;;;;5055433;28;20517;-70
2024/01/23 02:45:38;;;;;;;11.77;2.90;;;7.90;99.90;;;;;;5054210;28;20897;-70
2024/01/23 02:48:23;;;;;;;11.63;2.47;;;7.90;99.90;;;;;;5061140;28;20431;-70
2024/01/23 02:51:09;;;;;;;11.40;2.03;;;7.90;99.90;;;;;;5051037;28;20472;-70
2024/01/23 02:53:55;;;;;;;11.13;2.40;;;7.90;99.90;;;;;;5062191;28;20515;-70
2024/01/23 02:56:43;;;;;;;8.37;2.20;;;7.80;99.90;;;;;;5061262;28;20604;-70
2024/01/23 02:59:29;;;;;;;15.40;2.40;;;7.90;99.90;;;;;;5058178;28;20471;-70
2024/01/23 03:02:15;;;;;;;13.67;2.63;;;7.90;99.90;;;;;;5054594;28;20574;-70
2024/01/23 03:05:00;;;;;;;9.67;2.77;;;7.90;99.90;;;;;;5062973;28;20781;-70
2024/01/23 03:07:46;;;;;;;7.00;2.50;;;7.90;99.90;;;;;;5057880;28;20506;-70
2024/01/23 03:10:32;;;;;;;11.23;3.67;;;7.80;99.90;;;;;;5070294;28;20443;-70
2024/01/23 03:13:18;;;;;;;6.77;2.73;;;7.90;99.90;;;;;;5042938;28;20640;-69
2024/01/23 03:16:04;;;;;;;9.83;2.27;;;7.90;99.90;;;;;;5055324;28;20493;-70
2024/01/23 03:18:50;;;;;;;13.60;2.33;;;7.80;99.90;;;;;;5057035;28;20808;-70
2024/01/23 03:21:36;;;;;;;8.10;2.17;;;7.80;99.90;;;;;;5053438;28;20420;-70
2024/01/23 03:24:21;;;;;;;8.43;2.17;;;7.80;99.90;;;;;;5063692;28;20446;-70
2024/01/23 03:27:08;;;;;;;4.30;1.47;;;7.90;99.90;;;;;;5055921;28;20524;-70
2024/01/23 03:29:55;;;;;;;8.07;2.10;;;7.80;99.90;;;;;;5059390;28;20989;-70
2024/01/23 03:32:40;;;;;;;4.80;2.03;;;7.80;99.90;;;;;;5053179;28;20472;-70
2024/01/23 03:35:26;;;;;;;5.23;1.50;;;7.80;99.90;;;;;;5064803;28;20583;-70
2024/01/23 03:38:13;;;;;;;5.23;1.77;;;7.80;99.90;;;;;;5054392;28;20527;-70
2024/01/23 03:40:59;;;;;;;7.33;2.00;;;7.70;99.90;;;;;;5063015;28;20899;-71
2024/01/23 03:43:44;;;;;;;5.43;1.63;;;7.80;99.90;;;;;;5062529;28;20831;-70
2024/01/23 03:46:31;;;;;;;7.87;2.50;;;7.80;99.90;;;;;;5064317;28;20455;-70
2024/01/23 03:49:17;;;;;;;4.70;1.83;;;7.70;99.90;;;;;;5055459;28;20547;-70
2024/01/23 03:52:03;;;;;;;5.10;1.40;;;7.70;99.90;;;;;;5062659;28;20425;-71
2024/01/23 03:54:48;;;;;;;7.47;3.00;;;7.80;99.90;;;;;;5055263;28;20798;-70
2024/01/23 03:57:34;;;;;;;11.50;2.60;;;7.80;99.90;;;;;;5063084;28;20445;-70
2024/01/23 04:00:20;;;;;;;6.70;2.07;;;7.70;99.90;;;;;;5056318;28;20796;-70
2024/01/23 04:03:10;;;;;;;9.93;2.40;;;7.70;99.90;;;;;;5056189;28;20426;-70
2024/01/23 04:05:55;;;;;;;16.83;4.40;;;7.70;99.90;;;;;;5056976;28;20432;-70
2024/01/23 04:08:41;;;;;;;13.20;2.70;;;7.70;99.90;;;;;;5063307;28;20842;-70
2024/01/23 04:11:27;;;;;;;13.77;3.23;;;7.60;99.90;;;;;;5065388;28;20926;-70
2024/01/23 04:14:13;;;;;;;16.97;2.80;;;7.70;99.90;;;;;;5058242;28;20425;-70
2024/01/23 04:16:58;;;;;;;17.70;2.80;;;7.70;99.90;;;;;;5068831;28;20475;-69
2024/01/23 04:19:45;;;;;;;16.83;2.80;;;7.70;99.90;;;;;;5066409;28;20551;-70
2024/01/23 04:22:31;;;;;;;21.60;2.83;;;7.70;99.90;;;;;;5061179;28;20488;-70
2024/01/23 04:25:16;;;;;;;15.77;3.30;;;7.70;99.90;;;;;;5059467;28;20943;-70
2024/01/23 04:28:02;;;;;;;19.30;2.53;;;7.70;99.90;;;;;;5060698;28;20595;-71
2024/01/23 04:30:52;;;;;;;19.53;3.13;;;7.60;99.90;;;;;;5057753;28;20426;-69
2024/01/23 04:33:38;;;;;;;21.63;3.33;;;7.60;99.90;;;;;;5066826;28;20434;-71
2024/01/23 04:36:25;;;;;;;21.37;3.87;;;7.60;99.90;;;;;;5064953;28;20533;-70
2024/01/23 04:39:10;;;;;;;18.53;4.00;;;7.60;99.90;;;;;;5051089;28;20422;-71
2024/01/23 04:41:56;;;;;;;14.90;2.57;;;7.50;99.90;;;;;;5066311;28;20950;-70
2024/01/23 04:44:42;;;;;;;13.60;3.70;;;7.50;99.90;;;;;;5061483;28;20431;-71
2024/01/23 04:47:27;;;;;;;22.03;3.50;;;7.50;99.90;;;;;;5068988;28;20453;-70
2024/01/23 04:50:13;;;;;;;21.93;2.87;;;7.40;99.90;;;;;;5061418;28;20741;-70
2024/01/23 04:53:00;;;;;;;22.77;3.17;;;7.50;99.90;;;;;;5054095;28;20428;-70
2024/01/23 04:55:45;;;;;;;15.77;2.78;;;7.50;99.90;;;;;;5051153;28;20479;-69
2024/01/23 04:58:31;;;;;;;20.23;4.10;;;7.50;99.90;;;;;;5063542;28;20205;-70
2024/01/23 05:01:18;;;;;;;12.37;3.07;;;7.50;99.90;;;;;;5066577;28;20426;-70
2024/01/23 05:04:04;;;;;;;15.70;4.20;;;7.50;99.90;;;;;;5070305;28;20423;-70
2024/01/23 05:06:50;;;;;;;10.90;2.97;;;7.50;99.90;;;;;;5057414;28;20439;-69
2024/01/23 05:09:37;;;;;;;12.90;3.27;;;7.50;99.90;;;;;;5064815;28;20427;-70
2024/01/23 05:12:22;;;;;;;17.40;3.33;;;7.50;99.90;;;;;;5050885;28;20436;-70
2024/01/23 05:15:08;;;;;;;13.10;3.08;;;7.50;99.90;;;;;;5058401;28;20500;-70
2024/01/23 05:17:54;;;;;;;18.27;3.27;;;7.40;99.90;;;;;;5060671;28;20265;-69
2024/01/23 05:20:40;;;;;;;16.20;4.27;;;7.40;99.90;;;;;;5056139;28;20428;-70
2024/01/23 05:23:27;;;;;;;20.67;4.30;;;7.40;99.90;;;;;;5066197;28;20511;-70
2024/01/23 05:26:13;;;;;;;26.50;3.23;;;7.40;99.90;;;;;;5055156;28;20507;-70
2024/01/23 05:28:59;;;;;;;14.83;2.77;;;7.40;99.90;;;;;;5053188;28;20912;-70
2024/01/23 05:31:45;;;;;;;20.87;3.23;;;7.30;99.90;;;;;;5062851;28;20433;-71
2024/01/23 05:34:30;;;;;;;10.00;3.03;;;7.30;99.90;;;;;;5061241;28;20439;-69
2024/01/23 05:37:16;;;;;;;15.23;3.13;;;7.30;99.90;;;;;;5061110;28;20466;-71
2024/01/23 05:40:01;;;;;;;23.80;3.43;;;7.30;99.90;;;;;;5057155;28;20436;-71
2024/01/23 05:42:48;;;;;;;13.33;3.20;;;7.30;99.90;;;;;;5053904;28;20427;-70
2024/01/23 05:45:34;;;;;;;11.00;2.47;;;7.30;99.90;;;;;;5059525;28;21046;-70
2024/01/23 05:48:19;;;;;;;12.07;3.35;;;7.20;99.90;;;;;;5057767;28;20925;-70
2024/01/23 05:51:05;;;;;;;16.37;2.90;;;7.20;99.90;;;;;;5058499;28;20210;-70
2024/01/23 05:53:51;;;;;;;13.03;3.40;;;7.20;99.90;;;;;;5060898;28;20428;-69
2024/01/23 05:56:36;;;;;;;14.93;3.50;;;7.20;99.90;;;;;;5051340;28;20475;-71
2024/01/23 05:59:23;;;;;;;32.03;3.80;;;7.20;99.90;;;;;;5060795;28;20420;-71
2024/01/23 06:02:09;;;;;;;17.23;3.53;;;7.20;99.90;;;;;;5056116;28;20815;-70
2024/01/23 06:04:54;;;;;;;13.17;3.30;;;7.20;99.90;;;;;;5059708;28;20471;-70
2024/01/23 06:07:43;;;;;;;17.40;3.37;;;7.20;99.90;;;;;;5059157;28;20522;-70
2024/01/23 06:10:29;;;;;;;11.90;3.70;;;7.20;99.90;;;;;;5059416;28;20432;-70
2024/01/23 06:13:14;;;;;;;12.50;3.30;;;7.20;99.90;;;;;;5068246;28;20552;-70
2024/01/23 06:16:01;;;;;;;20.90;3.60;;;7.10;99.90;;;;;;5066245;28;20476;-70
2024/01/23 06:18:47;;;;;;;22.77;3.40;;;7.10;99.90;;;;;;5065952;28;20451;-71
2024/01/23 06:21:32;;;;;;;14.98;2.75;;;7.10;99.90;;;;;;5054923;28;21008;-71
2024/01/23 06:24:19;;;;;;;10.43;3.30;;;7.10;99.90;;;;;;5057992;28;20734;-71
2024/01/23 06:27:05;;;;;;;19.27;3.20;;;7.00;99.90;;;;;;5060467;28;20506;-70
2024/01/23 06:29:50;;;;;;;20.27;3.77;;;7.00;99.90;;;;;;5059333;28;20483;-70
2024/01/23 06:32:37;;;;;;;15.03;2.63;;;7.00;99.90;;;;;;5052710;28;20436;-70
2024/01/23 06:35:23;;;;;;;23.00;3.50;;;7.00;99.90;;;;;;5059831;28;20944;-71
2024/01/23 06:38:09;;;;;;;13.37;2.97;;;7.00;99.90;;;;;;5057706;28;20448;-70
2024/01/23 06:40:55;;;;;;;17.67;3.80;;;7.00;99.90;;;;;;5065410;28;20432;-70
2024/01/23 06:43:41;;;;;;;26.57;4.00;;;7.00;99.90;;;;;;5052593;28;20475;-70
2024/01/23 06:46:26;;;;;;;16.23;3.00;;;6.90;99.90;;;;;;5061620;28;20531;-70
2024/01/23 06:49:13;;;;;;;9.40;2.20;;;6.90;99.90;;;;;;5057999;28;20502;-69
2024/01/23 06:51:59;;;;;;;14.25;2.78;;;6.90;99.90;;;;;;5061614;28;20436;-70
2024/01/23 06:54:44;;;;;;;15.63;3.77;;;6.90;99.90;;;;;;5044447;28;20206;-71
2024/01/23 06:57:30;;;;;;;19.60;3.47;;;6.90;99.90;;;;;;5061895;28;20477;-70
2024/01/23 07:00:16;;;;;;;14.53;3.37;;;6.90;99.90;;;;;;5058605;28;20428;-70
2024/01/23 07:03:02;;;;;;;16.90;3.63;;;7.00;99.90;;;;;;5065405;28;20515;-70
2024/01/23 07:05:49;;;;;;;19.90;5.30;;;6.90;99.90;;;;;;5060350;28;20436;-71
2024/01/23 07:08:35;;;;;;;16.60;4.20;;;6.90;99.90;;;;;;5062943;28;20552;-70
2024/01/23 07:11:20;;;;;;;17.13;3.90;;;6.90;99.90;;;;;;5050949;28;20424;-70
2024/01/23 07:14:06;;;;;;;12.77;3.10;;;6.90;99.90;;;;;;5059319;28;20432;-70
2024/01/23 07:16:51;;;;;;;13.10;5.00;;;6.90;99.90;;;;;;5053961;28;20473;-70
2024/01/23 07:19:37;;;;;;;7.70;2.80;;;6.90;99.90;;;;;;5063308;28;20891;-70
2024/01/23 07:22:24;;;;;;;22.83;3.67;;;6.80;99.90;;;;;;5058673;28;20447;-70
2024/01/23 07:25:10;;;;;;;13.03;3.90;;;6.80;99.90;;;;;;5063596;28;20432;-70
2024/01/23 07:27:55;;;;;;;20.90;7.30;;;6.80;99.90;;;;;;5051008;28;20469;-71
2024/01/23 07:30:41;;;;;;;16.97;5.00;;;6.70;99.90;;;;;;5063723;28;20420;-71
2024/01/23 07:33:28;;;;;;;14.03;4.20;;;6.60;99.90;;;;;;5066862;28;20428;-69
2024/01/23 07:36:13;;;;;;;16.73;3.40;;;6.50;99.90;;;;;;5060142;28;21041;-71
2024/01/23 07:39:00;;;;;;;14.07;3.47;;;6.40;99.90;;;;;;5063908;28;20440;-69
2024/01/23 07:41:45;;;;;;;14.18;3.30;;;6.30;99.90;;;;;;5065959;28;20497;-70
2024/01/23 07:44:32;;;;;;;16.30;3.20;;;6.20;99.90;;;;;;5057279;28;20312;-69
2024/01/23 07:47:18;;;;;;;11.33;3.20;;;6.20;99.90;;;;;;5061991;28;20545;-70
2024/01/23 07:50:07;;;;;;;14.13;3.47;;;6.30;99.90;;;;;;5065819;28;20429;-71
2024/01/23 07:52:53;;;;;;;8.67;3.10;;;6.20;99.90;;;;;;5067893;28;20447;-70
2024/01/23 07:55:41;;;;;;;11.23;2.78;;;6.30;99.90;;;;;;5070977;28;20963;-70
2024/01/23 07:58:27;;;;;;;11.47;2.60;;;6.30;99.90;;;;;;5070959;28;20236;-70
2024/01/23 08:01:12;;;;;;;7.57;2.93;;;6.20;99.90;;;;;;5064598;28;20427;-70
2024/01/23 08:03:58;;;;;;;16.53;3.23;;;6.10;99.90;;;;;;5065631;28;20429;-71
2024/01/23 08:06:44;;;;;;;20.27;3.43;;;6.00;99.90;;;;;;5073960;28;20442;-70
2024/01/23 08:09:29;;;;;;;14.53;4.27;;;6.00;99.90;;;;;;5072891;28;20774;-70
2024/01/23 08:12:16;;;;;;;19.13;3.47;;;6.00;99.90;;;;;;5069252;28;20433;-70
2024/01/23 08:15:02;;;;;;;17.17;3.00;;;6.20;99.90;;;;;;5061305;28;20581;-70
2024/01/23 08:17:48;;;;;;;23.97;3.50;;;6.20;99.90;;;;;;5065048;28;20488;-70
2024/01/23 08:20:34;;;;;;;13.93;3.00;;;6.20;99.90;;;;;;5062398;28;20675;-70
2024/01/23 08:23:19;;;;;;;15.33;3.60;;;6.10;99.90;;;;;;5068527;28;20506;-70
2024/01/23 08:26:06;;;;;;;21.30;3.93;;;6.10;99.90;;;;;;5069648;28;20432;-70
2024/01/23 08:28:53;;;;;;;15.80;3.63;;;6.10;99.90;;;;;;5071354;28;20430;-70
2024/01/23 08:31:39;;;;;;;41.27;12.47;;;6.30;99.90;;;;;;5065815;28;20425;-70
2024/01/23 08:34:24;;;;;;;28.43;7.67;;;6.30;99.90;;;;;;5069942;28;20964;-70
2024/01/23 08:37:10;;;;;;;21.93;6.50;;;6.30;99.90;;;;;;5059726;28;20476;-71
2024/01/23 08:39:55;;;;;;;16.20;3.50;;;6.40;99.90;;;;;;5073319;28;20428;-70
2024/01/23 08:42:40;;;;;;;15.37;3.47;;;6.40;99.90;;;;;;5071065;28;20500;-70
2024/01/23 08:45:27;;;;;;;15.93;3.40;;;6.50;99.90;;;;;;5063751;28;20494;-70
2024/01/23 08:48:13;;;;;;;29.47;12.93;;;6.50;99.90;;;;;;5068713;28;20457;-70
2024/01/23 08:50:58;;;;;;;29.60;10.15;;;6.50;99.90;;;;;;5064979;28;20410;-70
2024/01/23 08:53:44;;;;;;;27.33;9.67;;;6.50;99.90;;;;;;5046630;28;20575;-70
2024/01/23 08:56:31;;;;;;;32.93;12.57;;;6.50;99.90;;;;;;5070909;28;20495;-71
2024/01/23 08:59:16;;;;;;;37.63;11.40;;;6.50;99.90;;;;;;5069726;28;20428;-70
2024/01/23 09:02:04;;;;;;;26.00;8.93;;;6.40;99.90;;;;;;5070063;28;20406;-71
2024/01/23 09:04:50;;;;;;;34.80;15.30;;;6.40;99.90;;;;;;5069223;28;20424;-71
2024/01/23 09:07:36;;;;;;;31.03;14.23;;;6.40;99.90;;;;;;5066478;28;20442;-71
2024/01/23 09:10:21;;;;;;;48.17;20.63;;;6.40;99.90;;;;;;5060719;28;20499;-71
2024/01/23 09:13:07;;;;;;;32.47;13.97;;;6.40;99.90;;;;;;5057329;28;20437;-71
2024/01/23 09:15:53;;;;;;;22.17;6.97;;;6.40;99.90;;;;;;5060352;28;20521;-71
2024/01/23 09:18:40;;;;;;;16.92;4.57;;;6.50;99.90;;;;;;5063501;28;20478;-71
2024/01/23 09:21:25;;;;;;;21.40;3.90;;;6.60;99.90;;;;;;5064490;28;20711;-71
2024/01/23 09:24:11;;;;;;;9.17;3.20;;;6.80;99.90;;;;;;5067147;28;20972;-71
2024/01/23 09:26:59;;;;;;;23.73;4.00;;;6.90;99.90;;;;;;5057909;28;20538;-71
2024/01/23 09:29:45;;;;;;;15.33;3.63;;;7.10;99.90;;;;;;5057832;28;20421;-71
2024/01/23 09:32:31;;;;;;;20.27;3.70;;;7.20;99.90;;;;;;5070529;28;20425;-71
2024/01/23 09:35:18;;;;;;;8.40;2.60;;;7.40;99.90;;;;;;5068495;28;20476;-71
2024/01/23 09:38:03;;;;;;;9.97;2.83;;;7.60;99.90;;;;;;5069302;28;20471;-71
2024/01/23 09:40:51;;;;;;;8.93;2.80;;;7.70;99.90;;;;;;5060013;28;20425;-71
2024/01/23 09:43:38;;;;;;;12.97;2.77;;;7.80;99.90;;;;;;5065553;28;20944;-71
2024/01/23 09:46:23;;;;;;;14.53;3.20;;;8.00;99.90;;;;;;5064779;28;20797;-71
2024/01/23 09:49:09;;;;;;;7.73;2.27;;;8.10;99.90;;;;;;5068725;28;20793;-71
2024/01/23 09:52:01;;;;;;;23.50;3.60;;;8.30;99.90;;;;;;5064829;28;20441;-71
2024/01/23 09:54:46;;;;;;;20.27;3.07;;;8.40;99.90;;;;;;5069896;28;21013;-71
2024/01/23 09:57:33;;;;;;;14.30;3.07;;;8.50;99.90;;;;;;5069510;28;21000;-71
2024/01/23 10:00:19;;;;;;;10.70;3.20;;;8.60;99.90;;;;;;5066979;28;20954;-70
2024/01/23 10:03:07;;;;;;;13.90;3.03;;;8.70;99.90;;;;;;5063151;28;20434;-71
2024/01/23 10:05:53;;;;;;;14.20;3.80;;;8.80;99.90;;;;;;5059051;28;20844;-71
2024/01/23 10:08:40;;;;;;;17.23;2.43;;;8.90;99.90;;;;;;5069650;28;20817;-71
2024/01/23 10:11:28;;;;;;;14.30;2.47;;;8.90;99.90;;;;;;5066427;28;20527;-71
2024/01/23 10:14:15;;;;;;;19.43;3.13;;;8.90;99.90;;;;;;5069506;28;20999;-71
2024/01/23 10:17:02;;;;;;;23.13;4.60;;;9.10;99.90;;;;;;5070276;28;20474;-71
2024/01/23 10:19:48;;;;;;;7.83;2.90;;;9.10;99.90;;;;;;5058335;28;20962;-70
2024/01/23 10:22:34;;;;;;;16.33;3.10;;;9.10;99.90;;;;;;5065803;28;20429;-71
2024/01/23 10:25:21;;;;;;;12.40;2.80;;;9.10;99.90;;;;;;5070202;28;20475;-70
2024/01/23 10:28:09;;;;;;;13.20;2.90;;;9.20;99.90;;;;;;5066683;28;20461;-71
2024/01/23 10:30:54;;;;;;;12.60;3.10;;;9.20;99.90;;;;;;5070818;28;20704;-71
2024/01/23 10:33:41;;;;;;;8.77;2.80;;;9.20;99.90;;;;;;5071406;28;20421;-71
2024/01/23 10:36:28;;;;;;;15.83;3.10;;;9.20;99.90;;;;;;5051658;28;20451;-71
2024/01/23 10:39:15;;;;;;;12.07;2.63;;;9.20;99.90;;;;;;5058418;28;20588;-71
2024/01/23 10:42:02;;;;;;;15.03;2.80;;;9.10;99.90;;;;;;5038391;28;20450;-71
2024/01/23 10:44:49;;;;;;;19.40;3.10;;;9.10;99.90;;;;;;5033734;28;20439;-71
2024/01/23 10:47:35;;;;;;;25.60;2.80;;;9.10;99.90;;;;;;5051512;28;20988;-71
2024/01/23 10:50:21;;;;;;;19.43;3.37;;;9.00;99.90;;;;;;5035165;28;20471;-70
2024/01/23 10:53:08;;;;;;;15.00;3.37;;;8.90;99.90;;;;;;5050213;28;20425;-71
2024/01/23 10:55:54;;;;;;;14.77;4.13;;;9.00;99.90;;;;;;5048090;28;20525;-71
2024/01/23 10:58:45;;;;;;;16.77;4.80;;;8.90;99.90;;;;;;5047788;28;20466;-71
2024/01/23 11:01:35;;;;;;;11.60;3.33;;;8.90;99.90;;;;;;5048112;28;20478;-70
2024/01/23 11:04:20;;;;;;;12.00;3.00;;;8.90;99.90;;;;;;5033905;28;20545;-71
2024/01/23 11:07:15;;;;;;;11.93;3.33;;;8.90;99.90;;;;;;5042915;28;20444;-71
2024/01/23 11:10:10;;;;;;;13.90;3.50;;;8.90;99.90;;;;;;5039818;28;20494;-71
2024/01/23 11:13:06;;;;;;;10.90;2.67;;;8.90;99.90;;;;;;5046215;28;20438;-71
2024/01/23 11:15:53;;;;;;;16.87;4.10;;;9.00;99.90;;;;;;5053803;28;20427;-71
2024/01/23 11:18:41;;;;;;;13.37;4.73;;;9.00;99.90;;;;;;5051660;28;20466;-71
2024/01/23 11:21:27;;;;;;;25.77;4.33;;;9.10;99.90;;;;;;5060206;28;20783;-70
2024/01/23 11:24:12;;;;;;;18.97;3.87;;;9.00;99.90;;;;;;5059115;28;20431;-71
2024/01/23 11:26:58;;;;;;;11.50;2.83;;;9.10;99.90;;;;;;5049069;28;20604;-71
2024/01/23 11:29:45;;;;;;;13.50;3.30;;;9.10;99.90;;;;;;5041518;28;20503;-70
2024/01/23 11:32:32;;;;;;;13.37;4.17;;;9.00;99.90;;;;;;5053179;28;20433;-71
2024/01/23 11:35:18;;;;;;;16.53;3.93;;;9.10;99.90;;;;;;5046737;28;20433;-71
2024/01/23 11:38:03;;;;;;;14.20;3.37;;;9.10;99.90;;;;;;5051271;28;20868;-71
2024/01/23 11:40:56;;;;;;;19.73;3.63;;;9.30;99.90;;;;;;5041693;28;20469;-70
2024/01/23 11:43:41;;;;;;;13.43;3.90;;;9.40;99.90;;;;;;5054911;28;20940;-71
2024/01/23 11:46:27;;;;;;;14.23;3.87;;;9.40;99.90;;;;;;5059971;28;20503;-71
2024/01/23 11:49:15;;;;;;;17.33;3.10;;;9.50;99.90;;;;;;5050970;28;20446;-71
2024/01/23 11:52:04;;;;;;;11.27;2.30;;;9.50;99.90;;;;;;5054496;28;20435;-71
2024/01/23 11:54:49;;;;;;;22.23;4.10;;;9.50;99.90;;;;;;5044805;28;20510;-70
2024/01/23 11:57:36;;;;;;;22.00;5.03;;;9.50;99.90;;;;;;5059314;28;20478;-71
2024/01/23 12:00:22;;;;;;;13.67;3.40;;;9.30;99.90;;;;;;5060398;28;20843;-71
2024/01/23 12:03:20;;;;;;;19.53;3.47;;;9.30;99.90;;;;;;5062835;28;20509;-71
2024/01/23 12:06:07;;;;;;;18.10;4.70;;;9.30;99.90;;;;;;5055089;28;20436;-71
2024/01/23 12:08:53;;;;;;;19.67;4.40;;;9.30;99.90;;;;;;5046434;28;20844;-71
2024/01/23 12:11:38;;;;;;;17.40;3.50;;;9.20;99.90;;;;;;5058515;28;20427;-71
2024/01/23 12:14:24;;;;;;;23.10;3.97;;;9.10;99.90;;;;;;5056146;28;20496;-71
2024/01/23 12:17:09;;;;;;;12.63;3.27;;;9.10;99.90;;;;;;5043460;28;20783;-71
2024/01/23 12:19:55;;;;;;;11.77;3.50;;;9.00;99.90;;;;;;5055007;28;20950;-70
2024/01/23 12:22:42;;;;;;;13.37;3.00;;;9.10;99.90;;;;;;5058799;28;20442;-71
2024/01/23 12:25:28;;;;;;;19.37;3.90;;;9.10;99.90;;;;;;5047681;28;20516;-70
2024/01/23 12:28:15;;;;;;;15.17;3.03;;;9.20;99.90;;;;;;5052960;28;20463;-70
2024/01/23 12:31:01;;;;;;;12.43;2.77;;;9.20;99.90;;;;;;5046177;28;20434;-71
2024/01/23 12:33:48;;;;;;;14.00;3.27;;;9.30;99.90;;;;;;5043193;28;20426;-71
2024/01/23 12:36:37;;;;;;;8.03;3.20;;;9.20;99.90;;;;;;5047306;28;20488;-71
2024/01/23 12:39:24;;;;;;;13.27;3.40;;;9.20;99.90;;;;;;5049735;28;20530;-71
2024/01/23 12:42:10;;;;;;;9.47;2.30;;;9.20;99.90;;;;;;5062929;28;20436;-70
2024/01/23 12:44:56;;;;;;;10.00;2.63;;;9.20;99.90;;;;;;5041634;28;20807;-71
2024/01/23 12:47:42;;;;;;;9.87;2.73;;;9.10;99.90;;;;;;5044681;28;20816;-70
2024/01/23 12:50:28;;;;;;;10.53;2.27;;;9.10;99.90;;;;;;5052267;28;20963;-71
2024/01/23 12:53:14;;;;;;;14.53;3.00;;;9.10;99.90;;;;;;5039499;28;20438;-70
2024/01/23 12:56:00;;;;;;;10.10;2.60;;;9.10;99.90;;;;;;5058802;28;21039;-71
2024/01/23 12:58:46;;;;;;;12.57;2.90;;;9.10;99.90;;;;;;5061395;28;20513;-71
2024/01/23 13:01:32;;;;;;;13.23;3.30;;;9.10;99.90;;;;;;5040837;28;20437;-70
2024/01/23 13:04:17;;;;;;;9.37;2.50;;;9.10;99.90;;;;;;5054400;28;20434;-71
2024/01/23 13:07:03;;;;;;;15.50;2.80;;;9.10;99.90;;;;;;5053810;28;20522;-70
2024/01/23 13:09:49;;;;;;;9.50;2.97;;;9.20;99.90;;;;;;5038388;28;20478;-70
2024/01/23 13:12:36;;;;;;;13.87;2.10;;;9.20;99.90;;;;;;5047146;28;20536;-70
2024/01/23 13:15:22;;;;;;;11.73;2.80;;;9.20;99.90;;;;;;5054855;28;20428;-71
2024/01/23 13:18:08;;;;;;;16.47;3.83;;;9.20;99.90;;;;;;5044896;28;20502;-71
2024/01/23 13:20:53;;;;;;;11.27;3.17;;;9.30;99.90;;;;;;5044449;28;20806;-71
2024/01/23 13:23:39;;;;;;;17.53;2.87;;;9.30;99.90;;;;;;5046567;28;20431;-70
2024/01/23 13:26:25;;;;;;;8.17;2.50;;;9.30;99.90;;;;;;5053513;28;20805;-71
2024/01/23 13:29:12;;;;;;;12.83;3.43;;;9.20;99.90;;;;;;5086576;22;20503;-73
2024/01/23 13:31:57;;;;;;;9.63;3.60;;;9.20;99.90;;;;;;5062405;28;20423;-72
2024/01/23 13:34:43;;;;;;;11.03;4.63;;;9.10;99.90;;;;;;5068696;28;20434;-72
2024/01/23 13:37:31;;;;;;;9.90;3.17;;;9.10;99.90;;;;;;5056363;28;20464;-73
2024/01/23 13:40:19;;;;;;;13.37;3.50;;;9.10;99.90;;;;;;5044605;28;20435;-72
2024/01/23 13:43:05;;;;;;;15.37;2.50;;;9.10;99.90;;;;;;5036228;28;20403;-72
2024/01/23 13:45:52;;;;;;;12.77;2.83;;;9.10;99.90;;;;;;5052772;28;20560;-72
2024/01/23 13:48:37;;;;;;;17.30;4.50;;;9.10;99.90;;;;;;5038897;28;20755;-72
2024/01/23 13:51:23;;;;;;;13.53;4.07;;;9.10;99.90;;;;;;5057226;28;20435;-72
2024/01/23 13:54:09;;;;;;;15.43;3.60;;;9.10;99.90;;;;;;5065101;28;20430;-73
2024/01/23 13:56:55;;;;;;;22.70;3.27;;;9.10;99.90;;;;;;5044022;28;20449;-72
2024/01/23 13:59:40;;;;;;;11.23;2.97;;;9.00;99.90;;;;;;5049588;28;20504;-72
2024/01/23 14:02:27;;;;;;;12.67;3.80;;;8.90;99.90;;;;;;5068820;28;20524;-73
2024/01/23 14:05:13;;;;;;;17.33;3.37;;;8.90;99.90;;;;;;5049786;28;20968;-73
2024/01/23 14:07:59;;;;;;;10.90;3.10;;;9.00;99.90;;;;;;5045471;28;20452;-73
2024/01/23 14:10:45;;;;;;;10.73;2.77;;;9.00;99.90;;;;;;5051803;28;20491;-73
2024/01/23 14:13:30;;;;;;;14.90;4.63;;;9.00;99.90;;;;;;5052262;28;20429;-73
2024/01/23 14:16:16;;;;;;;17.30;3.70;;;9.10;99.90;;;;;;5048015;28;20453;-72
2024/01/23 14:19:04;;;;;;;16.90;4.03;;;9.00;99.90;;;;;;5047951;28;20472;-73
2024/01/23 14:21:50;;;;;;;11.13;2.83;;;9.00;99.90;;;;;;5054128;28;20396;-72
2024/01/23 14:24:36;;;;;;;16.50;4.10;;;9.00;99.90;;;;;;5044707;28;20432;-72
2024/01/23 14:27:21;;;;;;;15.60;3.63;;;9.00;99.90;;;;;;5050989;28;20435;-72